Latest Weather Observations for Tunnack

IDT60801

Issued at 3:05 am EST Thursday 31 July 2014 (issued every 30 minutes, with the page automatically refreshed every 10 minutes)

About weather observations | Map of weather stations | Latest weather observations for TAS | Other Formats
Station Details ID: 094195 Name: TUNNACK FIRE STATION Lat: -42.45 Lon: 147.46 Height: 461.5 m
Data from the previous 72 hours. | See also: Recent months at Tunnack
Date/Time
EST
Temp
°C
App
Temp
°C
Dew
Point
Rel
Hum
%
Delta-T
°C
Wind Press
QNH
hPa
Press
MSL
hPa
Rain
since 9 am
mm
Dir
 
Spd
km/h
Gust
km/h
Spd
kts
Gust
kts
31/03:00am 11.0 4.2 5.1 67 2.8 WNW 30 41 16 22 989.2 990.0 0.0
31/02:30am 10.5 4.2 5.7 72 2.3 NNW 28 48 15 26 989.7 - 0.0
31/02:24am 10.3 3.7 5.9 74 2.1 NNW 30 48 16 26 989.7 - 0.0
31/02:00am 9.2 3.1 6.5 83 1.3 N 28 37 15 20 989.7 990.4 0.0
31/01:30am 9.2 2.0 5.0 75 1.9 N 32 41 17 22 989.7 - 0.0
31/01:29am 9.5 3.0 4.7 72 2.2 N 28 37 15 20 989.7 - 0.0
31/01:01am 10.5 1.3 3.5 62 3.2 NW 41 59 22 32 990.0 - 0.0
31/01:00am 10.5 0.9 3.5 62 3.2 NW 43 59 23 32 990.0 990.8 0.0
31/12:30am 10.8 1.6 3.4 60 3.3 NW 41 65 22 35 990.5 - 0.0
31/12:00am 10.3 0.5 3.3 62 3.2 NNW 44 63 24 34 991.0 991.8 0.0
 
Date/Time
EST
Temp
°C
App
Temp
°C
Dew
Point
Rel
Hum
%
Delta-T
°C
Wind Press
QNH
hPa
Press
MSL
hPa
Rain
since 9 am
mm
Dir
 
Spd
km/h
Gust
km/h
Spd
kts
Gust
kts
30/11:30pm 9.9 1.4 3.2 63 3.0 NNW 37 57 20 31 991.4 - 0.0
30/11:00pm 10.3 0.6 2.7 59 3.4 NW 43 61 23 33 991.3 992.1 0.0
30/10:30pm 10.4 0.2 3.2 61 3.2 NW 46 67 25 36 992.0 - 0.0
30/10:00pm 10.3 1.1 3.3 62 3.2 NW 41 61 22 33 992.1 992.9 0.0
30/09:30pm 10.7 0.6 4.0 63 3.1 NW 46 69 25 37 992.3 - 0.0
30/09:00pm 10.6 1.1 4.1 64 3.0 NW 43 65 23 35 992.5 993.3 0.0
30/08:30pm 10.6 2.3 4.1 64 3.0 NNW 37 59 20 32 993.0 - 0.0
30/08:19pm 10.8 3.2 4.0 63 3.1 NNW 33 57 18 31 993.0 - 0.0
30/08:15pm 10.3 3.3 4.0 65 2.9 NW 30 46 16 25 993.1 - 0.0
30/08:00pm 7.8 3.0 5.6 86 1.0 N 20 26 11 14 993.3 994.1 0.0
30/07:30pm 9.3 4.1 3.7 68 2.5 N 20 32 11 17 994.2 - 0.0
30/07:00pm 9.7 3.8 3.9 67 2.6 NW 24 33 13 18 994.5 995.3 0.0
30/06:30pm 9.5 1.9 3.7 67 2.6 NW 33 46 18 25 994.5 - 0.0
30/06:00pm 9.6 2.3 4.4 70 2.4 WNW 32 48 17 26 994.7 995.5 0.0
30/05:32pm 10.2 2.8 5.0 70 2.4 NW 33 56 18 30 994.6 - 0.0
30/05:30pm 10.1 2.4 5.3 72 2.2 NW 35 52 19 28 994.7 - 0.0
30/05:00pm 10.2 4.7 6.0 75 2.0 NW 24 37 13 20 994.4 995.2 0.0
30/04:30pm 9.9 3.3 6.1 77 1.8 WNW 30 44 16 24 994.5 - 0.0
30/04:08pm 10.2 3.5 5.6 73 2.2 NW 30 48 16 26 994.4 - 0.0
30/04:00pm 10.6 3.8 5.2 69 2.6 NW 30 39 16 21 994.3 995.1 0.0
30/03:30pm 10.8 1.3 4.9 67 2.7 NW 44 63 24 34 993.9 - 0.0
30/03:00pm 11.1 1.6 4.8 65 3.0 NW 44 65 24 35 994.4 995.2 0.0
30/02:31pm 11.2 1.9 4.9 65 2.9 NW 43 61 23 33 994.5 - 0.0
30/02:30pm 11.3 1.8 5.0 65 3.0 NW 44 61 24 33 994.5 - 0.0
30/02:26pm 11.3 1.9 4.5 63 3.2 WNW 43 61 23 33 994.5 - 0.0
30/02:00pm 10.8 1.4 4.3 64 3.0 WNW 43 59 23 32 994.9 995.7 0.0
30/01:33pm 10.9 1.7 3.7 61 3.3 NW 41 74 22 40 995.1 - 0.0
30/01:30pm 10.8 2.1 4.0 63 3.1 NW 39 54 21 29 995.1 - 0.0
30/01:00pm 10.6 1.9 3.9 63 3.1 NW 39 59 21 32 995.5 996.4 0.0
30/12:30pm 10.4 0.4 4.1 65 2.9 NW 46 69 25 37 995.8 - 0.0
30/12:00pm 10.6 1.2 4.7 67 2.8 NW 43 69 23 37 996.7 997.5 0.0
30/11:43am 10.4 0.7 3.9 64 2.9 WNW 44 69 24 37 996.6 - 0.0
30/11:30am 10.5 1.8 4.2 65 2.9 WNW 39 54 21 29 996.7 - 0.0
30/11:00am 10.2 -0.2 4.1 66 2.8 WNW 48 69 26 37 996.8 997.6 0.0
30/10:30am 10.0 0.4 4.2 67 2.6 WNW 44 63 24 34 997.0 - 0.0
30/10:00am 9.8 -1.0 4.2 68 2.6 NW 50 70 27 38 997.3 998.2 0.0
30/09:56am 9.8 -2.8 3.5 65 2.8 NW 59 70 32 38 997.2 - 0.0
30/09:32am 9.0 0.5 3.4 68 2.5 NW 37 57 20 31 997.0 - 0.0
30/09:30am 9.0 0.2 3.4 68 2.5 NW 39 56 21 30 997.0 - 0.0
30/09:00am 8.2 -0.1 2.2 66 2.6 NW 35 54 19 29 996.9 997.7 7.0
30/08:31am 7.3 -2.2 2.0 69 2.2 NW 41 59 22 32 997.3 - 7.0
30/08:30am 7.3 -2.6 1.8 68 2.3 NW 43 59 23 32 997.3 - 7.0
30/08:06am 6.8 -2.0 1.3 68 2.3 NW 37 56 20 30 997.3 - 7.0
30/08:00am 6.9 -2.3 1.0 66 2.4 NW 39 56 21 30 997.3 998.2 7.0
30/07:56am 6.8 -1.7 1.1 67 2.3 NW 35 56 19 30 997.4 - 7.0
30/07:30am 5.9 -2.6 0.7 69 2.1 NW 35 46 19 25 996.8 - 7.0
30/07:00am 6.0 -2.3 -0.5 63 2.6 NW 33 48 18 26 996.7 997.5 7.0
30/06:30am 5.5 -3.2 -0.3 66 2.3 WNW 35 50 19 27 997.2 - 7.0
30/06:00am 5.4 -2.2 0.4 70 2.0 WNW 30 41 16 22 997.3 998.2 7.0
30/05:30am 5.4 -1.9 0.0 68 2.1 WNW 28 46 15 25 997.5 - 7.0
30/05:07am 5.8 -1.4 1.0 71 1.9 WNW 28 48 15 26 997.3 - 7.0
30/05:00am 5.3 -0.6 1.8 78 1.5 W 22 37 12 20 997.3 998.2 7.0
30/04:30am 5.5 -4.3 2.3 80 1.3 W 43 69 23 37 997.1 - 6.8
30/04:00am 5.9 -3.5 2.4 78 1.5 W 41 69 22 37 996.5 997.3 6.8
30/03:30am 5.4 -4.5 2.9 84 1.1 WNW 44 69 24 37 995.6 - 6.8
30/03:06am 5.7 -3.9 3.5 86 0.9 WNW 43 61 23 33 995.3 - 6.6
30/03:00am 5.7 -4.0 3.7 87 0.9 WNW 44 61 24 33 994.9 995.7 6.6
30/02:30am 4.9 -2.1 4.0 94 0.4 WNW 30 48 16 26 994.3 - 6.6
30/02:07am 5.0 -2.5 3.5 90 0.6 WNW 32 52 17 28 993.7 - 6.6
30/02:00am 5.3 -1.1 3.2 86 0.9 WNW 26 41 14 22 993.8 994.7 6.4
30/01:30am 5.1 -3.8 3.1 87 0.8 W 39 61 21 33 993.4 - 6.4
30/01:00am 6.4 -3.3 2.7 77 1.6 WNW 43 67 23 36 992.7 993.5 5.8
30/12:44am 6.1 -2.1 2.7 79 1.4 W 35 69 19 37 992.1 - 5.8
30/12:30am 5.1 -2.0 3.8 91 0.6 W 30 50 16 27 992.0 - 5.8
30/12:28am 5.0 -1.6 4.0 93 0.4 W 28 50 15 27 992.0 - 5.8
30/12:10am 5.2 -2.3 3.7 90 0.6 WSW 32 41 17 22 992.2 - 5.0
30/12:00am 5.7 -4.4 3.5 86 1.0 WNW 46 80 25 43 991.6 992.5 4.2
 
Date/Time
EST
Temp
°C
App
Temp
°C
Dew
Point
Rel
Hum
%
Delta-T
°C
Wind Press
QNH
hPa
Press
MSL
hPa
Rain
since 9 am
mm
Dir
 
Spd
km/h
Gust
km/h
Spd
kts
Gust
kts
29/11:55pm 6.1 -5.6 3.1 81 1.3 WNW 54 74 29 40 991.2 - 4.0
29/11:35pm 6.7 -0.1 3.0 77 1.6 WNW 28 52 15 28 991.0 - 3.8
29/11:30pm 6.3 -0.5 3.3 81 1.3 WNW 28 41 15 22 990.9 - 3.8
29/11:00pm 6.2 -2.7 3.0 80 1.4 WNW 39 61 21 33 990.9 991.7 3.6
29/10:33pm 6.7 -2.0 2.0 72 2.0 WNW 37 56 20 30 991.2 - 3.6
29/10:30pm 6.5 -1.8 2.2 74 1.8 WNW 35 50 19 27 991.0 - 3.6
29/10:00pm 5.2 -5.2 4.0 92 0.5 WNW 48 70 26 38 990.4 991.2 3.6
29/09:30pm 6.5 -4.8 3.3 80 1.4 WNW 52 82 28 44 990.4 - 3.2
29/09:22pm 7.2 -2.6 2.5 72 2.0 WNW 43 80 23 43 990.2 - 2.8
29/09:00pm 6.7 -1.6 2.0 72 2.0 WNW 35 54 19 29 989.4 990.2 2.8
29/08:57pm 6.8 -1.5 2.1 72 2.0 WNW 35 54 19 29 989.4 - 2.8
29/08:55pm 6.5 -1.8 2.2 74 1.8 WNW 35 46 19 25 989.6 - 2.8
29/08:38pm 8.6 -4.0 0.3 56 3.4 WNW 56 96 30 52 989.3 - 2.6
29/08:31pm 8.7 -2.6 0.9 58 3.3 WNW 50 74 27 40 989.1 - 2.6
29/08:30pm 8.5 -2.8 1.2 60 3.1 WNW 50 67 27 36 989.1 - 2.6
29/08:04pm 7.9 -4.6 1.7 65 2.6 WNW 57 76 31 41 988.3 - 2.6
29/08:00pm 8.3 -4.7 1.5 62 2.9 WNW 59 76 32 41 988.3 989.1 2.6
29/07:30pm 7.5 -2.5 2.2 69 2.3 WNW 44 69 24 37 988.4 - 2.6
29/07:00pm 6.4 -2.9 5.0 91 0.6 W 43 80 23 43 988.5 989.3 2.6
29/06:53pm 6.9 -3.7 5.2 89 0.8 W 50 74 27 40 989.0 - 2.6
29/06:46pm 7.8 -6.5 4.7 81 1.4 WNW 69 98 37 53 988.2 - 2.2
29/06:45pm 8.2 -2.4 5.0 80 1.5 NW 50 93 27 50 988.4 - 2.0
29/06:30pm 8.8 -0.5 5.0 77 1.7 NW 43 61 23 33 987.4 - 1.6
29/06:00pm 9.1 -2.4 4.5 73 2.1 WNW 54 72 29 39 986.4 987.2 1.4
29/05:30pm 9.0 -4.0 5.6 79 1.6 WNW 63 83 34 45 986.3 - 1.4
29/05:19pm 9.6 -2.5 6.3 80 1.6 WNW 59 78 32 42 986.8 - 1.2
29/05:18pm 9.8 -2.7 6.2 78 1.7 WNW 61 78 33 42 986.6 - 1.2
29/05:16pm 9.8 1.2 6.5 80 1.6 NW 41 65 22 35 986.6 - 1.2
29/05:00pm 9.4 2.8 6.1 80 1.6 NNW 30 44 16 24 986.1 986.8 1.0
29/04:30pm 9.7 1.3 5.7 76 1.9 NNW 39 56 21 30 986.4 - 1.0
29/04:00pm 10.5 3.2 4.4 66 2.8 NNW 32 50 17 27 986.5 987.3 1.0
29/03:30pm 10.3 1.2 4.2 66 2.8 NW 41 61 22 33 987.1 - 1.0
29/03:00pm 10.3 1.7 4.5 67 2.7 NW 39 57 21 31 987.9 988.6 1.0
29/02:42pm 9.9 2.1 4.9 71 2.3 NW 35 54 19 29 988.6 - 1.0
29/02:30pm 10.2 1.6 4.8 69 2.5 WNW 39 52 21 28 988.5 - 1.0
29/02:01pm 9.9 3.6 5.5 74 2.1 NW 28 46 15 25 988.9 - 1.0
29/02:00pm 9.7 2.9 5.1 73 2.2 NW 30 46 16 25 988.9 989.7 1.0
29/01:54pm 9.5 3.1 5.3 75 2.0 NW 28 46 15 25 989.2 - 1.0
29/01:30pm 8.6 3.0 5.5 81 1.4 NW 24 35 13 19 989.4 - 1.0
29/01:00pm 7.4 1.2 6.0 91 0.7 WNW 28 37 15 20 991.0 991.8 1.0
29/12:30pm 6.4 -2.0 5.5 94 0.4 WNW 39 56 21 30 991.6 - 0.8
29/12:09pm 7.8 1.6 6.1 89 0.8 WNW 28 52 15 28 991.4 - 0.2
29/12:00pm 8.1 2.6 5.9 86 1.0 W 24 33 13 18 991.2 992.0 0.2
29/11:30am 8.7 0.1 4.9 77 1.7 NW 39 52 21 28 991.2 - 0.0
29/11:00am 9.5 -1.0 3.5 66 2.7 NW 48 69 26 37 991.4 992.2 0.0
29/10:43am 8.9 -1.9 5.8 81 1.5 WNW 52 70 28 38 992.0 - 0.0
29/10:39am 9.4 -2.5 5.2 75 1.9 WNW 57 70 31 38 991.9 - 0.0
29/10:36am 9.9 2.3 5.9 76 1.9 NW 35 56 19 30 992.0 - 0.0
29/10:30am 10.3 3.0 5.5 72 2.3 NW 33 48 18 26 991.9 - 0.0
29/10:13am 10.3 3.2 5.5 72 2.3 NW 32 59 17 32 991.6 - 0.0
29/10:11am 10.3 4.0 5.9 74 2.1 NW 28 44 15 24 991.6 - 0.0
29/10:00am 9.4 5.6 8.9 97 0.3 N 19 26 10 14 991.9 992.7 0.0
29/09:30am 9.4 3.8 8.9 97 0.3 N 28 33 15 18 991.6 - 0.0
29/09:00am 9.2 3.5 6.5 83 1.3 NNW 26 35 14 19 991.7 992.6 2.0
29/08:30am 9.3 -0.2 6.7 84 1.2 NNW 46 72 25 39 992.4 - 2.0
29/08:27am 9.5 -0.7 6.8 83 1.3 NNW 50 72 27 39 992.3 - 2.0
29/08:21am 9.2 2.1 8.0 92 0.6 N 35 54 19 29 992.4 - 2.0
29/08:00am 8.6 1.6 8.6 100 0.0 N 35 48 19 26 992.4 993.2 1.8
29/07:30am 8.2 0.8 8.2 100 0.0 N 37 52 20 28 992.7 - 1.8
29/07:00am 8.2 -0.6 8.2 100 0.0 N 44 59 24 32 992.8 993.6 1.6
29/06:40am 8.4 -0.3 8.4 100 0.0 N 44 63 24 34 993.2 - 0.8
29/06:30am 8.4 -0.3 8.4 100 0.0 N 44 59 24 32 993.2 - 0.4
29/06:00am 8.1 -0.1 8.0 99 0.0 N 41 67 22 36 993.8 994.7 0.4
29/05:53am 8.3 0.5 8.2 99 0.0 N 39 67 21 36 993.8 - 0.4
29/05:30am 8.1 1.0 8.0 99 0.0 N 35 46 19 25 994.6 - 0.4
29/05:02am 8.2 1.5 8.1 99 0.0 N 33 56 18 30 995.3 - 0.2
29/05:00am 8.1 1.6 8.0 99 0.0 N 32 44 17 24 995.4 996.3 0.2
29/04:30am 7.6 1.3 7.5 99 0.0 N 30 43 16 23 995.7 - 0.2
29/04:00am 7.4 0.1 7.3 99 0.0 N 35 44 19 24 996.2 997.1 0.2
29/03:30am 7.3 -1.7 7.2 99 0.0 N 44 63 24 34 996.7 - 0.2
29/03:04am 7.2 -1.3 7.1 99 0.0 N 41 59 22 32 997.0 - 0.2
29/03:00am 7.1 -1.0 7.0 99 0.0 N 39 54 21 29 997.1 998.0 0.2
29/02:37am 7.0 -1.5 6.9 99 0.0 N 41 59 22 32 997.5 - 0.2
29/02:30am 7.0 -1.9 6.9 99 0.0 N 43 59 23 32 997.6 - 0.2
29/02:00am 7.0 -1.5 6.9 99 0.0 N 41 54 22 29 998.1 999.0 0.2
29/01:34am 6.4 -1.1 6.3 99 0.0 N 35 54 19 29 998.5 - 0.2
29/01:30am 6.4 -1.5 6.3 99 0.0 N 37 54 20 29 998.5 - 0.2
29/01:00am 6.4 -0.1 6.3 99 0.0 N 30 41 16 22 999.4 1000.3 0.2
29/12:30am 6.6 1.2 6.5 99 0.0 N 24 32 13 17 1000.0 - 0.2
29/12:00am 6.8 0.0 6.7 99 0.0 N 32 43 17 23 1000.4 1001.3 0.2
 
Date/Time
EST
Temp
°C
App
Temp
°C
Dew
Point
Rel
Hum
%
Delta-T
°C
Wind Press
QNH
hPa
Press
MSL
hPa
Rain
since 9 am
mm
Dir
 
Spd
km/h
Gust
km/h
Spd
kts
Gust
kts
28/11:30pm 6.4 -0.1 6.3 99 0.0 N 30 43 16 23 1000.8 - 0.2
28/11:00pm 6.4 -1.1 6.3 99 0.0 N 35 46 19 25 1001.0 1001.9 0.2
28/10:30pm 6.3 -0.9 6.0 98 0.1 N 33 43 18 23 1001.4 - 0.2
28/10:00pm 6.6 -0.6 4.9 89 0.8 N 32 44 17 24 1001.7 1002.6 0.2
28/09:30pm 7.6 0.3 4.4 80 1.4 NNW 32 39 17 21 1001.4 - 0.2
28/09:00pm 8.4 0.9 3.7 72 2.1 NNW 32 43 17 23 1001.5 1002.4 0.2
28/08:38pm 8.5 1.7 5.1 79 1.6 NNW 30 48 16 26 1001.7 - 0.2
28/08:30pm 8.6 1.4 5.2 79 1.6 NNW 32 46 17 25 1001.9 - 0.2
28/08:00pm 8.2 2.3 7.4 95 0.4 NNW 28 37 15 20 1002.2 1003.1 0.2
28/07:30pm 8.7 1.7 7.0 89 0.8 NNW 33 43 18 23 1002.5 - 0.0
28/07:00pm 8.4 1.9 6.4 87 1.0 NNW 30 41 16 22 1002.6 1003.6 0.0
28/06:30pm 8.5 1.7 7.1 91 0.7 NNW 32 46 17 25 1002.2 - 0.0
28/06:00pm 8.6 2.4 6.1 84 1.2 N 28 39 15 21 1002.1 1003.0 0.0
28/05:44pm 9.9 2.3 0.8 53 3.8 NNW 30 50 16 27 1001.8 - 0.0
28/05:30pm 10.1 3.0 1.2 54 3.8 NNW 28 37 15 20 1001.9 - 0.0
28/05:16pm 10.3 2.8 0.9 52 4.0 NW 30 48 16 26 1002.0 - 0.0
28/05:00pm 9.8 3.2 1.9 58 3.4 NW 26 35 14 19 1002.4 1003.3 0.0
28/04:30pm 11.2 2.4 1.2 50 4.3 NW 37 52 20 28 1002.4 - 0.0
28/04:24pm 11.5 3.6 1.2 49 4.4 NW 32 50 17 27 1002.5 - 0.0
28/04:00pm 11.7 5.0 1.4 49 4.5 NW 26 41 14 22 1002.5 1003.5 0.0
28/03:30pm 11.8 3.3 0.9 47 4.7 NW 35 52 19 28 1002.9 - 0.0
28/03:00pm 12.8 5.4 2.1 48 4.8 NW 30 39 16 21 1002.9 1003.9 0.0
28/02:30pm 13.3 5.4 1.3 44 5.3 WNW 32 48 17 26 1003.1 - 0.0
28/02:11pm 13.3 5.2 1.0 43 5.4 WNW 33 52 18 28 1003.0 - 0.0
28/02:00pm 13.0 2.9 0.4 42 5.4 WNW 43 57 23 31 1003.0 1004.0 0.0
28/01:39pm 13.1 3.3 -0.2 40 5.6 WNW 41 59 22 32 1003.3 - 0.0
28/01:30pm 13.3 4.8 1.0 43 5.4 WNW 35 46 19 25 1003.4 - 0.0
28/01:00pm 12.6 4.7 2.2 49 4.7 WNW 33 50 18 27 1003.7 1004.6 0.0
28/12:30pm 13.0 4.2 3.4 52 4.4 NW 39 48 21 26 1004.1 - 0.0
28/12:00pm 12.9 4.1 3.8 54 4.2 NW 39 54 21 29 1004.6 1005.6 0.0
28/11:32am 11.7 2.8 3.2 56 3.8 NW 39 57 21 31 1005.1 - 0.0
28/11:30am 12.2 3.5 3.9 57 3.8 NW 39 50 21 27 1005.1 - 0.0
28/11:03am 12.1 2.4 3.9 57 3.8 NW 44 63 24 34 1005.2 - 0.0
28/11:00am 12.0 2.5 4.0 58 3.7 NW 43 59 23 32 1005.3 1006.3 0.0
28/10:40am 11.9 3.1 3.7 57 3.8 NW 39 63 21 34 1005.6 - 0.0
28/10:30am 11.7 3.7 4.0 59 3.5 NW 35 46 19 25 1005.8 - 0.0
28/10:00am 10.9 3.5 4.1 63 3.1 NW 32 39 17 21 1006.0 1006.9 0.0
28/09:33am 10.6 3.7 4.5 66 2.8 NW 30 57 16 31 1005.9 - 0.0
28/09:30am 10.5 3.7 4.9 68 2.6 NNW 30 43 16 23 1005.9 - 0.0
28/09:00am 9.6 5.3 7.9 89 0.8 NNW 20 28 11 15 1006.2 1007.2 0.2
28/08:30am 8.7 3.4 8.6 99 0.0 NNW 26 32 14 17 1006.3 - 0.2
28/08:00am 8.2 3.2 8.1 99 0.0 N 24 30 13 16 1006.4 1007.4 0.2
28/07:30am 8.3 4.7 8.2 99 0.0 N 17 22 9 12 1006.8 - 0.2
28/07:00am 8.6 4.7 8.5 99 0.0 NNW 19 26 10 14 1007.0 1008.0 0.2
28/06:30am 8.5 3.6 8.4 99 0.0 N 24 32 13 17 1006.8 - 0.2
28/06:00am 8.6 2.6 8.5 99 0.0 N 30 41 16 22 1006.6 1007.6 0.0
28/05:30am 8.7 3.1 8.6 99 0.0 N 28 41 15 22 1006.6 - 0.0
28/05:00am 8.6 3.3 8.5 99 0.0 N 26 33 14 18 1006.6 1007.6 0.0
28/04:30am 8.4 1.9 8.3 99 0.0 N 32 43 17 23 1006.8 - 0.0
28/04:00am 8.3 1.6 8.2 99 0.0 N 33 43 18 23 1007.1 1008.1 0.0
28/03:30am 8.1 1.6 8.0 99 0.0 N 32 41 17 22 1007.3 - 0.0

Other Formats:

Comma delimited format used in spreadsheet applications
http://www.bom.gov.au/fwo/IDT60801/IDT60801.94960.axf

JavaScript Object Notation format (JSON) in row-major order
http://www.bom.gov.au/fwo/IDT60801/IDT60801.94960.json